sensor_id;sensor_type;location;lat;lon;timestamp;P1;durP1;ratioP1;P2;durP2;ratioP2
48006;SDS011;33771;48.180;11.400;2023-03-19T00:01:26;16.23;;;8.13;;
48006;SDS011;33771;48.180;11.400;2023-03-19T00:03:52;14.50;;;8.40;;
48006;SDS011;33771;48.180;11.400;2023-03-19T00:06:18;14.97;;;7.57;;
48006;SDS011;33771;48.180;11.400;2023-03-19T00:08:44;21.33;;;8.37;;
48006;SDS011;33771;48.180;11.400;2023-03-19T00:11:10;16.47;;;9.07;;
48006;SDS011;33771;48.180;11.400;2023-03-19T00:13:37;13.93;;;7.53;;
48006;SDS011;33771;48.180;11.400;2023-03-19T00:16:03;19.03;;;7.33;;
48006;SDS011;33771;48.180;11.400;2023-03-19T00:18:30;16.73;;;8.00;;
48006;SDS011;33771;48.180;11.400;2023-03-19T00:20:56;17.10;;;7.87;;
48006;SDS011;33771;48.180;11.400;2023-03-19T00:23:22;18.00;;;7.70;;
48006;SDS011;33771;48.180;11.400;2023-03-19T00:25:48;14.80;;;7.60;;
48006;SDS011;33771;48.180;11.400;2023-03-19T00:28:13;15.70;;;7.73;;
48006;SDS011;33771;48.180;11.400;2023-03-19T00:30:39;13.70;;;7.70;;
48006;SDS011;33771;48.180;11.400;2023-03-19T00:33:04;16.47;;;8.17;;
48006;SDS011;33771;48.180;11.400;2023-03-19T00:35:30;16.47;;;7.63;;
48006;SDS011;33771;48.180;11.400;2023-03-19T00:37:56;14.87;;;7.30;;
48006;SDS011;33771;48.180;11.400;2023-03-19T00:40:22;15.27;;;7.63;;
48006;SDS011;33771;48.180;11.400;2023-03-19T00:42:47;16.70;;;8.43;;
48006;SDS011;33771;48.180;11.400;2023-03-19T00:45:13;15.90;;;7.33;;
48006;SDS011;33771;48.180;11.400;2023-03-19T00:47:38;15.57;;;7.43;;
48006;SDS011;33771;48.180;11.400;2023-03-19T00:50:04;20.07;;;8.63;;
48006;SDS011;33771;48.180;11.400;2023-03-19T00:52:30;16.67;;;8.20;;
48006;SDS011;33771;48.180;11.400;2023-03-19T00:54:56;20.30;;;8.23;;
48006;SDS011;33771;48.180;11.400;2023-03-19T00:57:22;16.03;;;7.77;;
48006;SDS011;33771;48.180;11.400;2023-03-19T00:59:47;15.63;;;8.67;;
48006;SDS011;33771;48.180;11.400;2023-03-19T01:02:13;16.57;;;8.73;;
48006;SDS011;33771;48.180;11.400;2023-03-19T01:04:41;15.47;;;8.80;;
48006;SDS011;33771;48.180;11.400;2023-03-19T01:07:06;16.27;;;8.90;;
48006;SDS011;33771;48.180;11.400;2023-03-19T01:09:32;14.67;;;7.63;;
48006;SDS011;33771;48.180;11.400;2023-03-19T01:11:59;16.53;;;7.90;;
48006;SDS011;33771;48.180;11.400;2023-03-19T01:14:28;15.27;;;8.27;;
48006;SDS011;33771;48.180;11.400;2023-03-19T01:16:54;17.17;;;8.37;;
48006;SDS011;33771;48.180;11.400;2023-03-19T01:19:20;17.43;;;9.53;;
48006;SDS011;33771;48.180;11.400;2023-03-19T01:21:46;16.97;;;8.60;;
48006;SDS011;33771;48.180;11.400;2023-03-19T01:24:13;18.13;;;8.50;;
48006;SDS011;33771;48.180;11.400;2023-03-19T01:26:40;14.60;;;8.20;;
48006;SDS011;33771;48.180;11.400;2023-03-19T01:29:06;14.23;;;8.23;;
48006;SDS011;33771;48.180;11.400;2023-03-19T01:31:32;14.33;;;8.03;;
48006;SDS011;33771;48.180;11.400;2023-03-19T01:33:58;14.50;;;7.83;;
48006;SDS011;33771;48.180;11.400;2023-03-19T01:36:23;19.73;;;9.70;;
48006;SDS011;33771;48.180;11.400;2023-03-19T01:38:49;16.97;;;8.70;;
48006;SDS011;33771;48.180;11.400;2023-03-19T01:41:15;14.90;;;8.27;;
48006;SDS011;33771;48.180;11.400;2023-03-19T01:43:41;14.80;;;8.37;;
48006;SDS011;33771;48.180;11.400;2023-03-19T01:46:07;16.27;;;8.67;;
48006;SDS011;33771;48.180;11.400;2023-03-19T01:48:52;16.90;;;8.07;;
48006;SDS011;33771;48.180;11.400;2023-03-19T01:51:22;19.00;;;8.80;;
48006;SDS011;33771;48.180;11.400;2023-03-19T01:53:56;19.60;;;8.83;;
48006;SDS011;33771;48.180;11.400;2023-03-19T01:58:57;12.80;;;7.87;;
48006;SDS011;33771;48.180;11.400;2023-03-19T02:01:26;22.00;;;13.77;;
48006;SDS011;33771;48.180;11.400;2023-03-19T02:03:54;22.07;;;11.77;;
48006;SDS011;33771;48.180;11.400;2023-03-19T02:06:20;20.37;;;11.77;;
48006;SDS011;33771;48.180;11.400;2023-03-19T02:08:47;20.30;;;10.60;;
48006;SDS011;33771;48.180;11.400;2023-03-19T02:11:15;21.37;;;11.60;;
48006;SDS011;33771;48.180;11.400;2023-03-19T02:13:42;23.33;;;12.57;;
48006;SDS011;33771;48.180;11.400;2023-03-19T02:16:07;21.83;;;13.10;;
48006;SDS011;33771;48.180;11.400;2023-03-19T02:18:33;22.57;;;13.10;;
48006;SDS011;33771;48.180;11.400;2023-03-19T02:21:10;22.50;;;13.73;;
48006;SDS011;33771;48.180;11.400;2023-03-19T02:26:26;28.57;;;15.53;;
48006;SDS011;33771;48.180;11.400;2023-03-19T02:28:54;24.37;;;14.43;;
48006;SDS011;33771;48.180;11.400;2023-03-19T02:31:20;25.13;;;12.93;;
48006;SDS011;33771;48.180;11.400;2023-03-19T02:33:59;24.83;;;13.17;;
48006;SDS011;33771;48.180;11.400;2023-03-19T02:36:59;18.52;;;11.30;;
48006;SDS011;33771;48.180;11.400;2023-03-19T02:39:30;19.90;;;10.53;;
48006;SDS011;33771;48.180;11.400;2023-03-19T02:41:59;18.50;;;10.50;;
48006;SDS011;33771;48.180;11.400;2023-03-19T02:44:27;18.57;;;9.17;;
48006;SDS011;33771;48.180;11.400;2023-03-19T02:46:52;17.60;;;8.63;;
48006;SDS011;33771;48.180;11.400;2023-03-19T02:49:18;17.03;;;8.47;;
48006;SDS011;33771;48.180;11.400;2023-03-19T02:51:44;15.03;;;8.03;;
48006;SDS011;33771;48.180;11.400;2023-03-19T02:54:10;14.47;;;7.97;;
48006;SDS011;33771;48.180;11.400;2023-03-19T02:56:35;12.07;;;6.83;;
48006;SDS011;33771;48.180;11.400;2023-03-19T02:59:01;15.03;;;7.40;;
48006;SDS011;33771;48.180;11.400;2023-03-19T03:01:27;13.97;;;7.50;;
48006;SDS011;33771;48.180;11.400;2023-03-19T03:03:53;11.87;;;6.60;;
48006;SDS011;33771;48.180;11.400;2023-03-19T03:06:18;9.70;;;6.77;;
48006;SDS011;33771;48.180;11.400;2023-03-19T03:08:44;12.57;;;6.50;;
48006;SDS011;33771;48.180;11.400;2023-03-19T03:11:10;14.90;;;6.60;;
48006;SDS011;33771;48.180;11.400;2023-03-19T03:13:35;13.20;;;6.80;;
48006;SDS011;33771;48.180;11.400;2023-03-19T03:16:01;12.67;;;6.33;;
48006;SDS011;33771;48.180;11.400;2023-03-19T03:18:26;13.07;;;6.87;;
48006;SDS011;33771;48.180;11.400;2023-03-19T03:20:52;13.33;;;6.53;;
48006;SDS011;33771;48.180;11.400;2023-03-19T03:23:18;11.83;;;6.17;;
48006;SDS011;33771;48.180;11.400;2023-03-19T03:25:47;12.93;;;6.83;;
48006;SDS011;33771;48.180;11.400;2023-03-19T03:28:14;13.30;;;7.00;;
48006;SDS011;33771;48.180;11.400;2023-03-19T03:30:39;14.83;;;6.30;;
48006;SDS011;33771;48.180;11.400;2023-03-19T03:33:05;15.30;;;7.47;;
48006;SDS011;33771;48.180;11.400;2023-03-19T03:35:31;16.03;;;7.10;;
48006;SDS011;33771;48.180;11.400;2023-03-19T03:37:56;11.90;;;6.30;;
48006;SDS011;33771;48.180;11.400;2023-03-19T03:40:23;13.77;;;6.37;;
48006;SDS011;33771;48.180;11.400;2023-03-19T03:42:48;12.27;;;6.63;;
48006;SDS011;33771;48.180;11.400;2023-03-19T03:45:14;13.07;;;6.00;;
48006;SDS011;33771;48.180;11.400;2023-03-19T03:47:40;11.73;;;6.37;;
48006;SDS011;33771;48.180;11.400;2023-03-19T03:50:06;11.87;;;6.00;;
48006;SDS011;33771;48.180;11.400;2023-03-19T03:52:34;13.80;;;6.53;;
48006;SDS011;33771;48.180;11.400;2023-03-19T03:55:00;13.03;;;6.40;;
48006;SDS011;33771;48.180;11.400;2023-03-19T03:57:27;14.57;;;6.53;;
48006;SDS011;33771;48.180;11.400;2023-03-19T03:59:52;8.77;;;6.23;;
48006;SDS011;33771;48.180;11.400;2023-03-19T04:02:18;14.97;;;7.07;;
48006;SDS011;33771;48.180;11.400;2023-03-19T04:04:45;12.77;;;5.93;;
48006;SDS011;33771;48.180;11.400;2023-03-19T04:07:11;12.10;;;6.20;;
48006;SDS011;33771;48.180;11.400;2023-03-19T04:09:37;14.30;;;6.30;;
48006;SDS011;33771;48.180;11.400;2023-03-19T04:12:02;10.70;;;6.77;;
48006;SDS011;33771;48.180;11.400;2023-03-19T04:14:28;13.43;;;6.67;;
48006;SDS011;33771;48.180;11.400;2023-03-19T04:16:54;12.30;;;6.10;;
48006;SDS011;33771;48.180;11.400;2023-03-19T04:19:19;8.57;;;4.90;;
48006;SDS011;33771;48.180;11.400;2023-03-19T04:21:45;7.80;;;6.00;;
48006;SDS011;33771;48.180;11.400;2023-03-19T04:24:10;12.40;;;6.20;;
48006;SDS011;33771;48.180;11.400;2023-03-19T04:26:37;13.50;;;5.90;;
48006;SDS011;33771;48.180;11.400;2023-03-19T04:29:03;10.27;;;5.50;;
48006;SDS011;33771;48.180;11.400;2023-03-19T04:31:28;11.00;;;5.73;;
48006;SDS011;33771;48.180;11.400;2023-03-19T04:33:54;9.07;;;5.77;;
48006;SDS011;33771;48.180;11.400;2023-03-19T04:36:20;11.83;;;6.60;;
48006;SDS011;33771;48.180;11.400;2023-03-19T04:38:45;10.80;;;6.60;;
48006;SDS011;33771;48.180;11.400;2023-03-19T04:41:12;14.30;;;6.73;;
48006;SDS011;33771;48.180;11.400;2023-03-19T04:43:39;12.20;;;6.73;;
48006;SDS011;33771;48.180;11.400;2023-03-19T04:46:05;15.50;;;6.90;;
48006;SDS011;33771;48.180;11.400;2023-03-19T04:48:32;11.40;;;6.70;;
48006;SDS011;33771;48.180;11.400;2023-03-19T04:51:00;11.97;;;6.70;;
48006;SDS011;33771;48.180;11.400;2023-03-19T04:53:28;13.77;;;6.53;;
48006;SDS011;33771;48.180;11.400;2023-03-19T04:55:54;11.40;;;6.37;;
48006;SDS011;33771;48.180;11.400;2023-03-19T04:58:20;15.13;;;6.47;;
48006;SDS011;33771;48.180;11.400;2023-03-19T05:00:46;15.07;;;6.93;;
48006;SDS011;33771;48.180;11.400;2023-03-19T05:03:13;10.20;;;6.07;;
48006;SDS011;33771;48.180;11.400;2023-03-19T05:05:39;10.87;;;6.13;;
48006;SDS011;33771;48.180;11.400;2023-03-19T05:08:05;9.73;;;6.37;;
48006;SDS011;33771;48.180;11.400;2023-03-19T05:10:32;13.70;;;6.60;;
48006;SDS011;33771;48.180;11.400;2023-03-19T05:12:58;14.10;;;6.87;;
48006;SDS011;33771;48.180;11.400;2023-03-19T05:15:24;15.40;;;6.43;;
48006;SDS011;33771;48.180;11.400;2023-03-19T05:17:49;11.10;;;6.87;;
48006;SDS011;33771;48.180;11.400;2023-03-19T05:20:15;12.73;;;7.27;;
48006;SDS011;33771;48.180;11.400;2023-03-19T05:22:42;11.33;;;6.50;;
48006;SDS011;33771;48.180;11.400;2023-03-19T05:25:07;12.97;;;6.60;;
48006;SDS011;33771;48.180;11.400;2023-03-19T05:27:33;13.90;;;7.30;;
48006;SDS011;33771;48.180;11.400;2023-03-19T05:29:59;13.80;;;7.10;;
48006;SDS011;33771;48.180;11.400;2023-03-19T05:32:25;11.97;;;7.47;;
48006;SDS011;33771;48.180;11.400;2023-03-19T05:34:51;16.50;;;6.97;;
48006;SDS011;33771;48.180;11.400;2023-03-19T05:37:16;17.27;;;7.70;;
48006;SDS011;33771;48.180;11.400;2023-03-19T05:39:42;12.93;;;7.17;;
48006;SDS011;33771;48.180;11.400;2023-03-19T05:42:08;11.40;;;7.00;;
48006;SDS011;33771;48.180;11.400;2023-03-19T05:44:33;13.60;;;6.83;;
48006;SDS011;33771;48.180;11.400;2023-03-19T05:46:59;12.47;;;7.40;;
48006;SDS011;33771;48.180;11.400;2023-03-19T05:49:25;13.93;;;8.27;;
48006;SDS011;33771;48.180;11.400;2023-03-19T05:51:50;14.30;;;6.77;;
48006;SDS011;33771;48.180;11.400;2023-03-19T05:54:16;13.50;;;8.00;;
48006;SDS011;33771;48.180;11.400;2023-03-19T05:56:41;12.67;;;7.57;;
48006;SDS011;33771;48.180;11.400;2023-03-19T05:59:07;13.83;;;7.83;;
48006;SDS011;33771;48.180;11.400;2023-03-19T06:01:32;11.57;;;7.53;;
48006;SDS011;33771;48.180;11.400;2023-03-19T06:03:58;13.70;;;7.60;;
48006;SDS011;33771;48.180;11.400;2023-03-19T06:06:24;15.30;;;8.27;;
48006;SDS011;33771;48.180;11.400;2023-03-19T06:08:49;15.17;;;8.40;;
48006;SDS011;33771;48.180;11.400;2023-03-19T06:11:15;16.60;;;8.53;;
48006;SDS011;33771;48.180;11.400;2023-03-19T06:13:40;15.10;;;8.83;;
48006;SDS011;33771;48.180;11.400;2023-03-19T06:16:07;15.37;;;9.27;;
48006;SDS011;33771;48.180;11.400;2023-03-19T06:18:33;16.13;;;8.90;;
48006;SDS011;33771;48.180;11.400;2023-03-19T06:20:58;15.60;;;8.90;;
48006;SDS011;33771;48.180;11.400;2023-03-19T06:23:24;15.53;;;8.90;;
48006;SDS011;33771;48.180;11.400;2023-03-19T06:25:50;14.33;;;8.93;;
48006;SDS011;33771;48.180;11.400;2023-03-19T06:28:15;16.20;;;9.20;;
48006;SDS011;33771;48.180;11.400;2023-03-19T06:30:41;15.20;;;9.47;;
48006;SDS011;33771;48.180;11.400;2023-03-19T06:33:07;15.23;;;9.13;;
48006;SDS011;33771;48.180;11.400;2023-03-19T06:35:33;14.63;;;9.57;;
48006;SDS011;33771;48.180;11.400;2023-03-19T06:37:58;16.97;;;9.50;;
48006;SDS011;33771;48.180;11.400;2023-03-19T06:40:24;17.07;;;9.17;;
48006;SDS011;33771;48.180;11.400;2023-03-19T06:42:50;14.43;;;9.47;;
48006;SDS011;33771;48.180;11.400;2023-03-19T06:45:17;15.53;;;8.93;;
48006;SDS011;33771;48.180;11.400;2023-03-19T06:47:44;14.73;;;9.13;;
48006;SDS011;33771;48.180;11.400;2023-03-19T06:50:11;17.57;;;9.27;;
48006;SDS011;33771;48.180;11.400;2023-03-19T06:52:39;13.77;;;8.70;;
48006;SDS011;33771;48.180;11.400;2023-03-19T06:55:05;14.43;;;8.30;;
48006;SDS011;33771;48.180;11.400;2023-03-19T06:57:32;12.60;;;7.97;;
48006;SDS011;33771;48.180;11.400;2023-03-19T06:59:57;17.67;;;8.50;;
48006;SDS011;33771;48.180;11.400;2023-03-19T07:02:23;16.63;;;8.10;;
48006;SDS011;33771;48.180;11.400;2023-03-19T07:04:50;18.27;;;8.20;;
48006;SDS011;33771;48.180;11.400;2023-03-19T07:07:16;15.40;;;7.70;;
48006;SDS011;33771;48.180;11.400;2023-03-19T07:09:42;11.50;;;7.07;;
48006;SDS011;33771;48.180;11.400;2023-03-19T07:12:08;11.57;;;6.97;;
48006;SDS011;33771;48.180;11.400;2023-03-19T07:14:33;11.63;;;7.10;;
48006;SDS011;33771;48.180;11.400;2023-03-19T07:16:59;13.37;;;6.13;;
48006;SDS011;33771;48.180;11.400;2023-03-19T07:19:32;11.70;;;6.63;;
48006;SDS011;33771;48.180;11.400;2023-03-19T07:21:58;8.77;;;5.90;;
48006;SDS011;33771;48.180;11.400;2023-03-19T07:24:23;10.10;;;5.40;;
48006;SDS011;33771;48.180;11.400;2023-03-19T07:26:49;11.20;;;5.73;;
48006;SDS011;33771;48.180;11.400;2023-03-19T07:29:15;9.27;;;4.77;;
48006;SDS011;33771;48.180;11.400;2023-03-19T07:31:41;10.07;;;4.87;;
48006;SDS011;33771;48.180;11.400;2023-03-19T07:34:07;9.17;;;4.83;;
48006;SDS011;33771;48.180;11.400;2023-03-19T07:36:32;8.63;;;5.00;;
48006;SDS011;33771;48.180;11.400;2023-03-19T07:38:58;6.57;;;4.37;;
48006;SDS011;33771;48.180;11.400;2023-03-19T07:41:24;5.37;;;4.20;;
48006;SDS011;33771;48.180;11.400;2023-03-19T07:43:50;13.53;;;5.40;;
48006;SDS011;33771;48.180;11.400;2023-03-19T07:46:15;7.03;;;4.33;;
48006;SDS011;33771;48.180;11.400;2023-03-19T07:48:41;8.97;;;4.80;;
48006;SDS011;33771;48.180;11.400;2023-03-19T07:51:07;7.17;;;5.00;;
48006;SDS011;33771;48.180;11.400;2023-03-19T07:53:33;7.13;;;4.97;;
48006;SDS011;33771;48.180;11.400;2023-03-19T07:55:59;10.10;;;5.03;;
48006;SDS011;33771;48.180;11.400;2023-03-19T07:58:24;7.63;;;4.40;;
48006;SDS011;33771;48.180;11.400;2023-03-19T08:00:51;10.03;;;5.13;;
48006;SDS011;33771;48.180;11.400;2023-03-19T08:03:17;8.80;;;4.90;;
48006;SDS011;33771;48.180;11.400;2023-03-19T08:05:43;10.07;;;5.13;;
48006;SDS011;33771;48.180;11.400;2023-03-19T08:08:09;7.63;;;4.63;;
48006;SDS011;33771;48.180;11.400;2023-03-19T08:10:34;7.90;;;4.47;;
48006;SDS011;33771;48.180;11.400;2023-03-19T08:13:00;7.03;;;4.63;;
48006;SDS011;33771;48.180;11.400;2023-03-19T08:15:26;8.23;;;5.30;;
48006;SDS011;33771;48.180;11.400;2023-03-19T08:17:58;8.57;;;4.63;;
48006;SDS011;33771;48.180;11.400;2023-03-19T08:20:28;7.73;;;5.27;;
48006;SDS011;33771;48.180;11.400;2023-03-19T08:22:54;8.93;;;5.10;;
48006;SDS011;33771;48.180;11.400;2023-03-19T08:25:21;6.60;;;4.40;;
48006;SDS011;33771;48.180;11.400;2023-03-19T08:27:47;7.33;;;4.27;;
48006;SDS011;33771;48.180;11.400;2023-03-19T08:30:13;9.87;;;4.53;;
48006;SDS011;33771;48.180;11.400;2023-03-19T08:32:39;8.80;;;4.90;;
48006;SDS011;33771;48.180;11.400;2023-03-19T08:35:05;11.30;;;4.77;;
48006;SDS011;33771;48.180;11.400;2023-03-19T08:37:31;7.43;;;4.27;;
48006;SDS011;33771;48.180;11.400;2023-03-19T08:39:57;6.53;;;4.67;;
48006;SDS011;33771;48.180;11.400;2023-03-19T08:42:23;10.47;;;5.03;;
48006;SDS011;33771;48.180;11.400;2023-03-19T08:44:49;9.67;;;4.80;;
48006;SDS011;33771;48.180;11.400;2023-03-19T08:47:14;9.20;;;4.80;;
48006;SDS011;33771;48.180;11.400;2023-03-19T08:49:40;7.87;;;4.93;;
48006;SDS011;33771;48.180;11.400;2023-03-19T08:52:06;11.77;;;4.90;;
48006;SDS011;33771;48.180;11.400;2023-03-19T08:54:32;9.20;;;4.60;;
48006;SDS011;33771;48.180;11.400;2023-03-19T08:57:01;8.80;;;4.50;;
48006;SDS011;33771;48.180;11.400;2023-03-19T08:59:27;9.17;;;4.87;;
48006;SDS011;33771;48.180;11.400;2023-03-19T09:01:53;7.23;;;4.47;;
48006;SDS011;33771;48.180;11.400;2023-03-19T09:04:19;8.20;;;4.30;;
48006;SDS011;33771;48.180;11.400;2023-03-19T09:06:46;7.57;;;5.03;;
48006;SDS011;33771;48.180;11.400;2023-03-19T09:09:15;8.90;;;4.33;;
48006;SDS011;33771;48.180;11.400;2023-03-19T09:11:44;6.67;;;4.17;;
48006;SDS011;33771;48.180;11.400;2023-03-19T09:14:10;6.53;;;3.67;;
48006;SDS011;33771;48.180;11.400;2023-03-19T09:16:36;7.53;;;4.13;;
48006;SDS011;33771;48.180;11.400;2023-03-19T09:19:03;5.83;;;3.70;;
48006;SDS011;33771;48.180;11.400;2023-03-19T09:21:29;8.87;;;4.33;;
48006;SDS011;33771;48.180;11.400;2023-03-19T09:23:54;6.63;;;4.27;;
48006;SDS011;33771;48.180;11.400;2023-03-19T09:26:20;16.97;;;6.00;;
48006;SDS011;33771;48.180;11.400;2023-03-19T09:28:46;10.83;;;4.50;;
48006;SDS011;33771;48.180;11.400;2023-03-19T09:31:11;7.20;;;3.80;;
48006;SDS011;33771;48.180;11.400;2023-03-19T09:33:37;6.33;;;4.43;;
48006;SDS011;33771;48.180;11.400;2023-03-19T09:36:03;6.27;;;4.17;;
48006;SDS011;33771;48.180;11.400;2023-03-19T09:38:28;7.37;;;4.40;;
48006;SDS011;33771;48.180;11.400;2023-03-19T09:46:44;7.10;;;4.27;;
48006;SDS011;33771;48.180;11.400;2023-03-19T09:49:24;8.90;;;4.30;;
48006;SDS011;33771;48.180;11.400;2023-03-19T09:54:31;6.50;;;4.10;;
48006;SDS011;33771;48.180;11.400;2023-03-19T09:57:11;8.97;;;4.93;;
48006;SDS011;33771;48.180;11.400;2023-03-19T09:59:37;8.03;;;4.13;;
48006;SDS011;33771;48.180;11.400;2023-03-19T10:02:21;6.53;;;4.30;;
48006;SDS011;33771;48.180;11.400;2023-03-19T10:10:49;6.37;;;4.50;;
48006;SDS011;33771;48.180;11.400;2023-03-19T10:16:26;10.30;;;4.90;;
48006;SDS011;33771;48.180;11.400;2023-03-19T10:18:54;6.20;;;4.43;;
48006;SDS011;33771;48.180;11.400;2023-03-19T10:21:34;9.10;;;5.53;;
48006;SDS011;33771;48.180;11.400;2023-03-19T10:26:40;6.80;;;4.53;;
48006;SDS011;33771;48.180;11.400;2023-03-19T10:29:08;7.30;;;4.57;;
48006;SDS011;33771;48.180;11.400;2023-03-19T10:34:58;8.63;;;4.90;;
48006;SDS011;33771;48.180;11.400;2023-03-19T10:37:30;10.00;;;4.60;;
48006;SDS011;33771;48.180;11.400;2023-03-19T10:39:58;6.77;;;4.40;;
48006;SDS011;33771;48.180;11.400;2023-03-19T10:42:38;7.17;;;4.47;;
48006;SDS011;33771;48.180;11.400;2023-03-19T10:47:37;6.80;;;4.30;;
48006;SDS011;33771;48.180;11.400;2023-03-19T10:50:04;9.30;;;4.87;;
48006;SDS011;33771;48.180;11.400;2023-03-19T10:52:31;9.83;;;5.27;;
48006;SDS011;33771;48.180;11.400;2023-03-19T10:55:18;6.90;;;4.50;;
48006;SDS011;33771;48.180;11.400;2023-03-19T10:57:49;7.47;;;4.13;;
48006;SDS011;33771;48.180;11.400;2023-03-19T11:00:23;7.28;;;4.60;;
48006;SDS011;33771;48.180;11.400;2023-03-19T11:02:52;10.05;;;5.07;;
48006;SDS011;33771;48.180;11.400;2023-03-19T11:08:04;7.40;;;4.82;;
48006;SDS011;33771;48.180;11.400;2023-03-19T11:10:42;9.32;;;5.10;;
48006;SDS011;33771;48.180;11.400;2023-03-19T11:15:56;6.68;;;4.32;;
48006;SDS011;33771;48.180;11.400;2023-03-19T11:18:27;5.43;;;4.05;;
48006;SDS011;33771;48.180;11.400;2023-03-19T11:20:56;7.05;;;4.45;;
48006;SDS011;33771;48.180;11.400;2023-03-19T11:23:26;9.27;;;4.47;;
48006;SDS011;33771;48.180;11.400;2023-03-19T11:25:53;6.65;;;4.25;;
48006;SDS011;33771;48.180;11.400;2023-03-19T11:28:24;8.75;;;4.43;;
48006;SDS011;33771;48.180;11.400;2023-03-19T11:39:20;7.75;;;4.63;;
48006;SDS011;33771;48.180;11.400;2023-03-19T11:47:47;7.35;;;4.60;;
48006;SDS011;33771;48.180;11.400;2023-03-19T11:50:55;8.35;;;5.25;;
48006;SDS011;33771;48.180;11.400;2023-03-19T12:15:47;9.70;;;4.82;;
48006;SDS011;33771;48.180;11.400;2023-03-19T12:18:32;7.18;;;4.60;;
48006;SDS011;33771;48.180;11.400;2023-03-19T12:24:02;12.65;;;6.95;;
48006;SDS011;33771;48.180;11.400;2023-03-19T12:34:51;9.23;;;5.38;;
48006;SDS011;33771;48.180;11.400;2023-03-19T12:42:52;11.40;;;10.25;;
48006;SDS011;33771;48.180;11.400;2023-03-19T12:45:24;7.25;;;4.47;;
48006;SDS011;33771;48.180;11.400;2023-03-19T12:48:23;5.72;;;3.80;;
48006;SDS011;33771;48.180;11.400;2023-03-19T12:50:53;9.73;;;4.60;;
48006;SDS011;33771;48.180;11.400;2023-03-19T12:56:08;7.50;;;4.63;;
48006;SDS011;33771;48.180;11.400;2023-03-19T12:58:47;11.85;;;5.28;;
48006;SDS011;33771;48.180;11.400;2023-03-19T13:01:35;9.20;;;4.90;;
48006;SDS011;33771;48.180;11.400;2023-03-19T13:04:09;9.13;;;4.60;;
48006;SDS011;33771;48.180;11.400;2023-03-19T13:06:43;8.77;;;4.87;;
48006;SDS011;33771;48.180;11.400;2023-03-19T13:23:37;11.88;;;5.18;;
48006;SDS011;33771;48.180;11.400;2023-03-19T13:26:06;6.40;;;4.43;;
48006;SDS011;33771;48.180;11.400;2023-03-19T13:28:36;8.15;;;4.60;;
48006;SDS011;33771;48.180;11.400;2023-03-19T13:31:18;9.10;;;6.00;;
48006;SDS011;33771;48.180;11.400;2023-03-19T13:33:54;10.65;;;7.00;;
48006;SDS011;33771;48.180;11.400;2023-03-19T13:36:27;13.63;;;8.82;;
48006;SDS011;33771;48.180;11.400;2023-03-19T13:38:58;13.77;;;8.25;;
48006;SDS011;33771;48.180;11.400;2023-03-19T13:46:51;8.82;;;4.40;;
48006;SDS011;33771;48.180;11.400;2023-03-19T13:52:33;9.00;;;4.45;;
48006;SDS011;33771;48.180;11.400;2023-03-19T13:54:46;17.23;;;10.23;;
48006;SDS011;33771;48.180;11.400;2023-03-19T13:57:18;5.75;;;4.03;;
48006;SDS011;33771;48.180;11.400;2023-03-19T13:59:55;8.73;;;4.00;;
48006;SDS011;33771;48.180;11.400;2023-03-19T14:07:21;15.43;;;9.15;;
48006;SDS011;33771;48.180;11.400;2023-03-19T14:10:02;8.77;;;5.05;;
48006;SDS011;33771;48.180;11.400;2023-03-19T14:12:40;8.60;;;4.65;;
48006;SDS011;33771;48.180;11.400;2023-03-19T14:17:36;9.05;;;4.05;;
48006;SDS011;33771;48.180;11.400;2023-03-19T14:22:39;9.95;;;3.78;;
48006;SDS011;33771;48.180;11.400;2023-03-19T14:25:19;5.75;;;3.53;;
48006;SDS011;33771;48.180;11.400;2023-03-19T14:27:47;7.63;;;4.20;;
48006;SDS011;33771;48.180;11.400;2023-03-19T14:33:24;10.32;;;3.30;;
48006;SDS011;33771;48.180;11.400;2023-03-19T14:35:53;5.05;;;3.05;;
48006;SDS011;33771;48.180;11.400;2023-03-19T14:38:27;8.57;;;4.60;;
48006;SDS011;33771;48.180;11.400;2023-03-19T14:40:56;5.20;;;2.78;;
48006;SDS011;33771;48.180;11.400;2023-03-19T14:52:05;8.40;;;3.83;;
48006;SDS011;33771;48.180;11.400;2023-03-19T14:54:39;4.38;;;3.03;;
48006;SDS011;33771;48.180;11.400;2023-03-19T14:57:14;6.03;;;3.17;;
48006;SDS011;33771;48.180;11.400;2023-03-19T14:59:41;5.47;;;2.88;;
48006;SDS011;33771;48.180;11.400;2023-03-19T15:02:16;7.50;;;3.85;;
48006;SDS011;33771;48.180;11.400;2023-03-19T15:05:04;7.97;;;3.22;;
48006;SDS011;33771;48.180;11.400;2023-03-19T15:07:44;5.55;;;3.20;;
48006;SDS011;33771;48.180;11.400;2023-03-19T15:10:13;5.43;;;2.67;;
48006;SDS011;33771;48.180;11.400;2023-03-19T15:17:59;11.30;;;3.80;;
48006;SDS011;33771;48.180;11.400;2023-03-19T15:20:38;6.93;;;3.50;;
48006;SDS011;33771;48.180;11.400;2023-03-19T15:23:11;5.90;;;3.00;;
48006;SDS011;33771;48.180;11.400;2023-03-19T15:28:15;7.95;;;3.17;;
48006;SDS011;33771;48.180;11.400;2023-03-19T15:30:41;8.63;;;3.00;;
48006;SDS011;33771;48.180;11.400;2023-03-19T15:33:16;4.57;;;2.83;;
48006;SDS011;33771;48.180;11.400;2023-03-19T15:35:43;3.83;;;2.97;;
48006;SDS011;33771;48.180;11.400;2023-03-19T15:38:10;6.38;;;3.45;;
48006;SDS011;33771;48.180;11.400;2023-03-19T15:40:39;5.38;;;2.95;;
48006;SDS011;33771;48.180;11.400;2023-03-19T15:43:06;5.57;;;3.13;;
48006;SDS011;33771;48.180;11.400;2023-03-19T15:45:35;7.60;;;3.25;;
48006;SDS011;33771;48.180;11.400;2023-03-19T15:48:03;12.45;;;4.03;;
48006;SDS011;33771;48.180;11.400;2023-03-19T15:50:34;6.72;;;3.05;;
48006;SDS011;33771;48.180;11.400;2023-03-19T15:53:08;6.22;;;3.08;;
48006;SDS011;33771;48.180;11.400;2023-03-19T15:55:47;9.65;;;2.95;;
48006;SDS011;33771;48.180;11.400;2023-03-19T15:58:15;7.35;;;2.97;;
48006;SDS011;33771;48.180;11.400;2023-03-19T16:00:52;5.38;;;2.63;;
48006;SDS011;33771;48.180;11.400;2023-03-19T16:03:21;5.15;;;2.85;;
48006;SDS011;33771;48.180;11.400;2023-03-19T16:05:59;6.80;;;3.38;;
48006;SDS011;33771;48.180;11.400;2023-03-19T16:10:52;6.72;;;2.83;;
48006;SDS011;33771;48.180;11.400;2023-03-19T16:13:31;5.95;;;3.03;;
48006;SDS011;33771;48.180;11.400;2023-03-19T16:18:41;9.32;;;3.45;;
48006;SDS011;33771;48.180;11.400;2023-03-19T16:23:52;9.60;;;4.20;;
48006;SDS011;33771;48.180;11.400;2023-03-19T16:26:28;7.25;;;3.38;;
48006;SDS011;33771;48.180;11.400;2023-03-19T16:31:43;7.00;;;3.70;;
48006;SDS011;33771;48.180;11.400;2023-03-19T16:34:20;8.65;;;4.20;;
48006;SDS011;33771;48.180;11.400;2023-03-19T16:36:54;6.20;;;4.10;;
48006;SDS011;33771;48.180;11.400;2023-03-19T16:39:24;9.75;;;3.67;;
48006;SDS011;33771;48.180;11.400;2023-03-19T16:44:54;7.07;;;3.10;;
48006;SDS011;33771;48.180;11.400;2023-03-19T16:47:20;4.68;;;2.90;;
48006;SDS011;33771;48.180;11.400;2023-03-19T16:49:47;7.50;;;2.92;;
48006;SDS011;33771;48.180;11.400;2023-03-19T16:52:14;8.30;;;3.25;;
48006;SDS011;33771;48.180;11.400;2023-03-19T16:54:43;8.65;;;4.55;;
48006;SDS011;33771;48.180;11.400;2023-03-19T16:57:12;8.25;;;3.70;;
48006;SDS011;33771;48.180;11.400;2023-03-19T16:59:40;9.82;;;3.88;;
48006;SDS011;33771;48.180;11.400;2023-03-19T17:02:13;7.05;;;4.40;;
48006;SDS011;33771;48.180;11.400;2023-03-19T17:04:39;8.27;;;3.55;;
48006;SDS011;33771;48.180;11.400;2023-03-19T17:07:05;7.80;;;3.80;;
48006;SDS011;33771;48.180;11.400;2023-03-19T17:09:32;6.45;;;4.07;;
48006;SDS011;33771;48.180;11.400;2023-03-19T17:11:57;6.95;;;4.45;;